createdAt,value
2019-05-18T00:00:40.181Z,10.30
2019-05-18T00:03:12.140Z,10.26
2019-05-18T00:05:44.129Z,10.28
2019-05-18T00:08:16.012Z,10.27
2019-05-18T00:10:47.340Z,10.28
2019-05-18T00:13:20.280Z,10.26
2019-05-18T00:15:52.138Z,10.21
2019-05-18T00:18:24.080Z,10.19
2019-05-18T00:20:55.309Z,10.16
2019-05-18T00:23:27.066Z,10.09
2019-05-18T00:25:59.099Z,9.98
2019-05-18T00:28:31.008Z,9.94
2019-05-18T00:31:02.976Z,9.95
2019-05-18T00:33:36.544Z,9.94
2019-05-18T00:36:08.691Z,9.93
2019-05-18T00:38:40.737Z,9.94
2019-05-18T00:41:12.623Z,9.93
2019-05-18T00:43:44.505Z,9.93
2019-05-18T00:46:18.690Z,9.97
2019-05-18T00:48:50.670Z,10.00
2019-05-18T00:51:23.398Z,9.96
2019-05-18T00:53:56.408Z,9.89
2019-05-18T00:56:28.449Z,9.92
2019-05-18T00:59:00.283Z,9.89
2019-05-18T01:01:32.253Z,10.02
2019-05-18T01:04:04.152Z,10.35
2019-05-18T01:06:36.007Z,10.50
2019-05-18T01:09:08.820Z,10.32
2019-05-18T01:11:40.674Z,10.33
2019-05-18T01:14:12.702Z,10.28
2019-05-18T01:16:44.588Z,10.14
2019-05-18T01:19:16.516Z,10.04
2019-05-18T01:21:48.437Z,10.29
2019-05-18T01:24:21.310Z,10.31
2019-05-18T01:26:53.146Z,10.26
2019-05-18T01:29:25.035Z,10.30
2019-05-18T01:31:57.861Z,10.16
2019-05-18T01:34:29.831Z,10.12
2019-05-18T01:37:01.719Z,10.05
2019-05-18T01:39:33.780Z,9.98
2019-05-18T01:42:05.733Z,9.99
2019-05-18T01:44:37.674Z,9.96
2019-05-18T01:47:08.943Z,10.01
2019-05-18T01:49:40.823Z,9.90
2019-05-18T01:52:12.785Z,9.75
2019-05-18T01:54:44.745Z,9.67
2019-05-18T01:57:16.727Z,9.64
2019-05-18T01:59:48.753Z,9.78
2019-05-18T02:02:20.813Z,10.02
2019-05-18T02:04:52.728Z,9.93
2019-05-18T02:07:24.753Z,9.79
2019-05-18T02:09:57.713Z,9.70
2019-05-18T02:12:29.584Z,9.63
2019-05-18T02:15:01.658Z,9.71
2019-05-18T02:17:33.624Z,9.66
2019-05-18T02:20:05.809Z,9.62
2019-05-18T02:22:37.667Z,9.54
2019-05-18T02:25:10.966Z,9.46
2019-05-18T02:27:42.886Z,9.48
2019-05-18T02:30:17.511Z,9.42
2019-05-18T02:32:48.749Z,9.38
2019-05-18T02:35:20.683Z,9.38
2019-05-18T02:37:54.229Z,9.35
2019-05-18T02:40:26.198Z,9.40
2019-05-18T02:42:57.443Z,9.56
2019-05-18T02:45:29.343Z,9.43
2019-05-18T02:48:01.233Z,9.48
2019-05-18T02:50:33.117Z,9.39
2019-05-18T02:53:05.068Z,9.28
2019-05-18T02:55:36.326Z,9.17
2019-05-18T02:58:10.267Z,9.08
2019-05-18T03:00:42.329Z,9.06
2019-05-18T03:03:14.308Z,9.03
2019-05-18T03:05:47.275Z,9.02
2019-05-18T03:08:19.213Z,8.97
2019-05-18T03:11:16.092Z,9.06
2019-05-18T03:13:50.199Z,9.40
2019-05-18T03:16:21.551Z,9.34
2019-05-18T03:19:07.535Z,9.57
2019-05-18T03:21:27.045Z,9.64
2019-05-18T03:23:58.959Z,9.72
2019-05-18T03:26:30.796Z,9.68
2019-05-18T03:29:02.719Z,9.76
2019-05-18T03:31:34.732Z,9.66
2019-05-18T03:34:06.802Z,9.69
2019-05-18T03:36:38.875Z,9.74
2019-05-18T03:39:10.376Z,9.90
2019-05-18T03:41:42.217Z,9.88
2019-05-18T03:44:14.158Z,9.75
2019-05-18T03:46:46.081Z,9.67
2019-05-18T03:50:36.818Z,9.65
2019-05-18T03:53:54.773Z,9.79
2019-05-18T03:56:31.080Z,9.80
2019-05-18T03:59:03.193Z,9.77
2019-05-18T04:01:35.250Z,9.78
2019-05-18T04:04:09.976Z,9.92
2019-05-18T04:06:42.092Z,9.90
2019-05-18T04:09:14.166Z,9.99
2019-05-18T04:11:46.301Z,10.02
2019-05-18T04:14:18.459Z,10.04
2019-05-18T04:16:50.505Z,10.11
2019-05-18T04:19:22.419Z,10.16
2019-05-18T04:21:54.366Z,10.19
2019-05-18T04:24:28.892Z,10.21
2019-05-18T04:27:00.741Z,10.29
2019-05-18T04:29:32.588Z,10.35
2019-05-18T04:32:04.540Z,10.42
2019-05-18T04:34:39.279Z,10.47
2019-05-18T04:37:11.236Z,10.55
2019-05-18T04:39:43.114Z,10.73
2019-05-18T04:42:16.188Z,10.82
2019-05-18T04:44:48.336Z,10.88
2019-05-18T04:47:21.160Z,10.92
2019-05-18T04:50:04.634Z,10.97
2019-05-18T04:52:26.640Z,11.06
2019-05-18T04:54:58.471Z,11.13
2019-05-18T04:57:34.849Z,11.28
2019-05-18T05:00:07.647Z,11.30
2019-05-18T05:02:39.512Z,11.35
2019-05-18T05:05:11.485Z,11.40
2019-05-18T05:07:43.371Z,11.51
2019-05-18T05:10:15.271Z,11.58
2019-05-18T05:12:47.385Z,11.71
2019-05-18T05:15:19.555Z,11.87
2019-05-18T05:17:51.557Z,12.04
2019-05-18T05:20:22.874Z,12.23
2019-05-18T05:22:54.693Z,12.32
2019-05-18T05:25:26.587Z,12.50
2019-05-18T05:27:58.566Z,12.72
2019-05-18T05:30:30.437Z,12.72
2019-05-18T05:33:02.395Z,12.90
2019-05-18T05:35:37.633Z,12.97
2019-05-18T05:38:08.733Z,13.04
2019-05-18T05:40:40.598Z,13.16
2019-05-18T05:43:18.410Z,13.20
2019-05-18T05:45:50.516Z,13.29
2019-05-18T05:48:21.717Z,13.36
2019-05-18T05:50:53.520Z,13.55
2019-05-18T05:53:25.368Z,13.67
2019-05-18T05:55:57.276Z,13.66
2019-05-18T05:58:28.640Z,13.66
2019-05-18T06:01:00.448Z,13.74
2019-05-18T06:03:32.298Z,13.88
2019-05-18T06:06:04.182Z,13.95
2019-05-18T06:08:36.001Z,13.92
2019-05-18T06:11:07.844Z,14.18
2019-05-18T06:13:39.715Z,14.22
2019-05-18T06:16:12.103Z,14.29
2019-05-18T06:18:43.931Z,14.44
2019-05-18T06:21:15.803Z,14.48
2019-05-18T06:23:46.987Z,14.59
2019-05-18T06:26:18.847Z,14.61
2019-05-18T06:28:50.715Z,14.76
2019-05-18T06:31:23.300Z,14.81
2019-05-18T06:33:56.262Z,14.97
2019-05-18T06:36:28.037Z,15.01
2019-05-18T06:39:00.019Z,15.04
2019-05-18T06:41:31.887Z,15.34
2019-05-18T06:44:04.471Z,15.80
2019-05-18T06:46:36.457Z,15.92
2019-05-18T06:49:07.635Z,16.00
2019-05-18T06:51:39.398Z,15.97
2019-05-18T06:54:11.332Z,15.89
2019-05-18T06:56:44.315Z,15.87
2019-05-18T06:59:17.783Z,16.04
2019-05-18T07:01:49.666Z,16.23
2019-05-18T07:04:21.123Z,16.13
2019-05-18T07:06:52.891Z,16.53
2019-05-18T07:09:24.831Z,16.91
2019-05-18T07:11:56.680Z,16.84
2019-05-18T07:14:27.818Z,16.74
2019-05-18T07:16:59.625Z,16.81
2019-05-18T07:19:35.631Z,16.77
2019-05-18T07:22:07.464Z,16.41
2019-05-18T07:24:39.297Z,16.12
2019-05-18T07:27:11.243Z,16.21
2019-05-18T07:29:43.091Z,16.33
2019-05-18T07:32:15.012Z,16.57
2019-05-18T07:34:46.785Z,16.66
2019-05-18T07:37:18.692Z,16.73
2019-05-18T07:39:50.549Z,16.75
2019-05-18T07:42:21.791Z,16.56
2019-05-18T07:44:53.645Z,16.62
2019-05-18T07:47:25.491Z,17.11
2019-05-18T07:49:57.350Z,17.27
2019-05-18T07:52:29.120Z,17.52
2019-05-18T07:55:01.087Z,17.12
2019-05-18T07:57:33.082Z,17.31
2019-05-18T08:00:04.532Z,17.18
2019-05-18T08:02:36.452Z,17.15
2019-05-18T08:05:09.214Z,17.20
2019-05-18T08:07:41.118Z,17.55
2019-05-18T08:10:14.706Z,17.85
2019-05-18T08:12:46.509Z,18.05
2019-05-18T08:15:18.776Z,17.84
2019-05-18T08:17:50.612Z,17.81
2019-05-18T08:20:22.454Z,18.04
2019-05-18T08:22:54.310Z,18.28
2019-05-18T08:25:26.203Z,18.29
2019-05-18T08:27:58.070Z,18.44
2019-05-18T08:30:29.891Z,18.64
2019-05-18T08:33:01.708Z,18.83
2019-05-18T08:35:33.608Z,18.74
2019-05-18T08:38:05.475Z,18.55
2019-05-18T08:40:37.671Z,18.66
2019-05-18T08:43:09.466Z,18.88
2019-05-18T08:45:41.284Z,18.69
2019-05-18T08:48:13.187Z,18.72
2019-05-18T08:50:44.980Z,18.78
2019-05-18T08:53:16.838Z,18.93
2019-05-18T08:55:48.644Z,19.07
2019-05-18T08:58:20.594Z,19.15
2019-05-18T09:00:52.448Z,19.02
2019-05-18T09:03:24.347Z,19.09
2019-05-18T09:05:56.239Z,19.12
2019-05-18T09:08:27.350Z,19.15
2019-05-18T09:10:59.147Z,19.27
2019-05-18T09:13:31.033Z,19.41
2019-05-18T09:16:02.948Z,19.38
2019-05-18T09:18:34.766Z,19.27
2019-05-18T09:21:06.732Z,19.31
2019-05-18T09:23:38.582Z,19.35
2019-05-18T09:26:10.475Z,19.37
2019-05-18T09:28:42.265Z,19.47
2019-05-18T09:31:14.178Z,19.58
2019-05-18T09:33:45.997Z,19.54
2019-05-18T09:36:17.904Z,19.59
2019-05-18T09:38:49.863Z,19.75
2019-05-18T09:41:21.812Z,19.87
2019-05-18T09:43:53.755Z,19.69
2019-05-18T09:46:25.676Z,19.58
2019-05-18T09:48:57.657Z,19.60
2019-05-18T09:51:29.639Z,19.65
2019-05-18T09:54:01.569Z,19.73
2019-05-18T09:56:33.725Z,19.77
2019-05-18T09:59:05.844Z,19.76
2019-05-18T10:01:37.913Z,19.83
2019-05-18T10:04:09.914Z,19.92
2019-05-18T10:06:41.141Z,19.88
2019-05-18T10:09:13.136Z,19.96
2019-05-18T10:11:47.775Z,20.03
2019-05-18T10:14:20.624Z,20.06
2019-05-18T10:16:52.519Z,20.03
2019-05-18T10:19:24.553Z,20.05
2019-05-18T10:21:56.546Z,20.07
2019-05-18T10:24:28.651Z,20.16
2019-05-18T10:26:59.974Z,20.23
2019-05-18T10:29:31.800Z,20.29
2019-05-18T10:32:03.827Z,20.36
2019-05-18T10:34:35.876Z,20.43
2019-05-18T10:37:08.109Z,20.37
2019-05-18T10:39:40.084Z,20.31
2019-05-18T10:42:12.069Z,20.28
2019-05-18T10:44:44.022Z,20.36
2019-05-18T10:47:16.207Z,20.02
2019-05-18T10:49:48.099Z,19.94
2019-05-18T10:52:20.026Z,20.20
2019-05-18T10:54:51.976Z,20.37
2019-05-18T10:57:23.973Z,20.34
2019-05-18T10:59:55.944Z,20.27
2019-05-18T11:02:27.885Z,20.38
2019-05-18T11:04:59.898Z,20.53
2019-05-18T11:07:31.799Z,20.63
2019-05-18T11:10:03.713Z,20.63
2019-05-18T11:12:35.873Z,20.69
2019-05-18T11:15:10.369Z,20.84
2019-05-18T11:17:41.678Z,20.96
2019-05-18T11:20:14.578Z,21.05
2019-05-18T11:22:46.532Z,21.15
2019-05-18T11:25:19.691Z,21.28
2019-05-18T11:27:51.633Z,21.32
2019-05-18T11:30:25.801Z,21.41
2019-05-18T11:33:00.901Z,21.40
2019-05-18T11:35:36.897Z,21.42
2019-05-18T11:38:10.480Z,21.52
2019-05-18T11:40:43.973Z,21.62
2019-05-18T11:43:16.662Z,21.59
2019-05-18T11:45:56.396Z,21.69
2019-05-18T11:48:31.293Z,21.95
2019-05-18T11:51:03.321Z,22.07
2019-05-18T11:53:35.381Z,22.09
2019-05-18T11:56:07.457Z,22.00
2019-05-18T12:01:41.989Z,21.74
2019-05-18T12:04:13.873Z,21.90
2019-05-18T12:06:45.704Z,22.00
2019-05-18T12:09:17.592Z,22.00
2019-05-18T12:11:49.604Z,21.83
2019-05-18T12:14:21.407Z,21.80
2019-05-18T12:16:54.211Z,21.83
2019-05-18T12:19:26.033Z,21.76
2019-05-18T12:21:57.936Z,21.74
2019-05-18T12:24:29.967Z,21.78
2019-05-18T12:27:01.825Z,21.81
2019-05-18T12:29:33.784Z,21.81
2019-05-18T12:32:05.679Z,21.75
2019-05-18T12:34:37.564Z,21.63
2019-05-18T12:37:11.311Z,21.63
2019-05-18T12:39:43.220Z,21.63
2019-05-18T12:42:15.021Z,21.57
2019-05-18T12:44:46.976Z,21.64
2019-05-18T12:47:18.870Z,21.76
2019-05-18T12:49:52.161Z,21.78
2019-05-18T12:52:24.000Z,21.65
2019-05-18T12:54:55.841Z,21.78
2019-05-18T12:57:30.610Z,21.78
2019-05-18T13:00:02.470Z,21.82
2019-05-18T13:02:34.405Z,21.78
2019-05-18T13:05:06.236Z,21.85
2019-05-18T13:07:37.392Z,21.84
2019-05-18T13:10:10.789Z,21.68
2019-05-18T13:12:42.647Z,21.68
2019-05-18T13:15:14.964Z,21.68
2019-05-18T13:17:46.793Z,21.65
2019-05-18T13:20:19.666Z,21.70
2019-05-18T13:22:51.306Z,21.72
2019-05-18T13:25:23.214Z,21.72
2019-05-18T13:27:55.156Z,21.71
2019-05-18T13:30:26.539Z,21.64
2019-05-18T13:32:58.352Z,21.75
2019-05-18T13:35:30.236Z,21.88
2019-05-18T13:38:02.241Z,21.80
2019-05-18T13:40:34.067Z,21.76
2019-05-18T13:43:06.404Z,21.82
2019-05-18T13:45:38.348Z,21.91
2019-05-18T13:48:10.160Z,22.02
2019-05-18T13:50:44.774Z,22.03
2019-05-18T13:53:15.708Z,22.01
2019-05-18T13:55:46.866Z,21.93
2019-05-18T13:58:18.724Z,21.90
2019-05-18T14:00:49.913Z,22.03
2019-05-18T14:03:21.680Z,22.06
2019-05-18T14:05:56.630Z,21.97
2019-05-18T14:08:28.452Z,21.98
2019-05-18T14:11:00.270Z,22.02
2019-05-18T14:13:32.114Z,21.94
2019-05-18T14:16:03.336Z,22.01
2019-05-18T14:18:35.193Z,22.16
2019-05-18T14:21:07.035Z,22.16
2019-05-18T14:23:38.900Z,22.06
2019-05-18T14:26:10.081Z,22.09
2019-05-18T14:28:41.185Z,22.18
2019-05-18T14:31:13.027Z,22.07
2019-05-18T14:33:45.042Z,22.13
2019-05-18T14:36:16.903Z,22.08
2019-05-18T14:38:58.375Z,22.20
2019-05-18T14:41:30.187Z,22.28
2019-05-18T14:44:01.971Z,22.25
2019-05-18T14:46:33.906Z,22.31
2019-05-18T14:49:08.091Z,22.31
2019-05-18T14:51:40.841Z,22.20
2019-05-18T14:54:12.697Z,22.12
2019-05-18T14:56:44.551Z,22.02
2019-05-18T14:59:16.336Z,22.07
2019-05-18T15:01:48.492Z,22.12
2019-05-18T15:04:19.553Z,22.16
2019-05-18T15:06:50.866Z,22.24
2019-05-18T15:09:22.551Z,22.29
2019-05-18T15:11:54.381Z,22.35
2019-05-18T15:14:26.736Z,22.27
2019-05-18T15:16:58.543Z,22.04
2019-05-18T15:19:30.455Z,22.06
2019-05-18T15:22:03.327Z,22.08
2019-05-18T15:24:35.165Z,22.14
2019-05-18T15:27:06.970Z,22.11
2019-05-18T15:29:38.827Z,22.02
2019-05-18T15:32:10.017Z,21.96
2019-05-18T15:34:41.829Z,21.91
2019-05-18T15:37:13.653Z,21.99
2019-05-18T15:39:45.428Z,21.93
2019-05-18T15:42:17.303Z,21.95
2019-05-18T15:44:49.221Z,22.02
2019-05-18T15:47:20.538Z,21.98
2019-05-18T15:49:53.309Z,22.01
2019-05-18T15:52:25.208Z,22.04
2019-05-18T15:54:56.441Z,22.04
2019-05-18T15:57:28.222Z,22.07
2019-05-18T16:00:00.161Z,22.13
2019-05-18T16:02:32.058Z,22.13
2019-05-18T16:05:04.073Z,22.12
2019-05-18T16:07:36.115Z,22.22
2019-05-18T16:10:08.684Z,22.28
2019-05-18T16:12:40.561Z,22.33
2019-05-18T16:15:12.273Z,22.27
2019-05-18T16:17:44.042Z,22.33
2019-05-18T16:20:16.594Z,22.35
2019-05-18T16:22:48.514Z,22.39
2019-05-18T16:25:19.667Z,22.34
2019-05-18T16:27:52.274Z,22.37
2019-05-18T16:30:24.290Z,22.41
2019-05-18T16:32:56.146Z,22.41
2019-05-18T16:35:28.050Z,22.48
2019-05-18T16:37:59.936Z,22.60
2019-05-18T16:40:31.806Z,22.75
2019-05-18T16:43:04.009Z,22.79
2019-05-18T16:45:35.928Z,22.86
2019-05-18T16:48:07.796Z,22.87
2019-05-18T16:50:39.567Z,22.85
2019-05-18T16:53:10.741Z,22.98
2019-05-18T16:55:42.475Z,23.03
2019-05-18T16:58:13.676Z,23.04
2019-05-18T17:00:44.810Z,23.02
2019-05-18T17:03:16.532Z,23.10
2019-05-18T17:05:48.375Z,23.26
2019-05-18T17:08:20.246Z,23.25
2019-05-18T17:10:52.427Z,23.26
2019-05-18T17:13:23.611Z,23.23
2019-05-18T17:15:55.345Z,23.25
2019-05-18T17:18:27.223Z,23.42
2019-05-18T17:20:59.032Z,23.44
2019-05-18T17:23:31.004Z,23.57
2019-05-18T17:26:02.817Z,23.47
2019-05-18T17:28:34.792Z,23.44
2019-05-18T17:31:06.588Z,23.49
2019-05-18T17:33:38.396Z,23.62
2019-05-18T17:36:10.229Z,23.61
2019-05-18T17:38:42.022Z,23.53
2019-05-18T17:41:13.881Z,23.54
2019-05-18T17:43:45.784Z,23.62
2019-05-18T17:46:17.023Z,23.63
2019-05-18T17:48:50.011Z,23.61
2019-05-18T17:51:22.815Z,23.53
2019-05-18T17:53:54.605Z,23.61
2019-05-18T17:56:26.485Z,23.40
2019-05-18T17:58:58.391Z,23.26
2019-05-18T18:01:30.264Z,23.35
2019-05-18T18:04:02.077Z,23.13
2019-05-18T18:06:34.100Z,23.24
2019-05-18T18:09:08.010Z,23.05
2019-05-18T18:11:39.927Z,22.77
2019-05-18T18:14:11.960Z,22.37
2019-05-18T18:16:43.892Z,22.01
2019-05-18T18:19:15.782Z,21.77
2019-05-18T18:21:47.908Z,21.44
2019-05-18T18:24:19.166Z,21.15
2019-05-18T18:26:51.047Z,20.87
2019-05-18T18:29:22.903Z,20.62
2019-05-18T18:31:54.711Z,20.42
2019-05-18T18:34:26.597Z,20.18
2019-05-18T18:37:08.652Z,19.96
2019-05-18T18:39:42.834Z,19.81
2019-05-18T18:42:15.028Z,19.57
2019-05-18T18:44:47.036Z,19.37
2019-05-18T18:47:19.158Z,19.16
2019-05-18T18:49:51.132Z,18.97
2019-05-18T18:52:22.765Z,18.80
2019-05-18T18:54:59.203Z,18.63
2019-05-18T18:57:40.640Z,18.49
2019-05-18T19:00:04.386Z,18.32
2019-05-18T19:02:35.958Z,18.19
2019-05-18T19:05:09.571Z,18.06
2019-05-18T19:07:41.359Z,17.93
2019-05-18T19:10:13.996Z,17.83
2019-05-18T19:12:46.406Z,17.70
2019-05-18T19:15:18.136Z,17.61
2019-05-18T19:17:52.101Z,17.49
2019-05-18T19:20:28.726Z,17.39
2019-05-18T19:23:02.474Z,17.27
2019-05-18T19:25:36.386Z,17.17
2019-05-18T19:28:07.934Z,17.20
2019-05-18T19:30:40.058Z,17.12
2019-05-18T19:33:14.004Z,17.01
2019-05-18T19:35:46.596Z,17.06
2019-05-18T19:38:20.290Z,17.34
2019-05-18T19:40:55.632Z,17.55
2019-05-18T19:43:28.003Z,17.67
2019-05-18T19:45:59.655Z,17.56
2019-05-18T19:48:31.613Z,17.38
2019-05-18T19:51:06.619Z,17.24
2019-05-18T19:53:39.749Z,17.30
2019-05-18T19:56:11.713Z,17.17
2019-05-18T19:58:50.118Z,17.03
2019-05-18T20:01:21.963Z,16.91
2019-05-18T20:03:54.723Z,16.82
2019-05-18T20:06:25.954Z,16.67
2019-05-18T20:08:57.211Z,16.49
2019-05-18T20:11:29.431Z,16.33
2019-05-18T20:14:01.788Z,16.17
2019-05-18T20:16:35.088Z,16.04
2019-05-18T20:19:08.507Z,15.98
2019-05-18T20:21:39.829Z,15.88
2019-05-18T20:24:13.702Z,15.76
2019-05-18T20:26:46.691Z,15.75
2019-05-18T20:29:19.015Z,15.75
2019-05-18T20:31:51.276Z,15.75
2019-05-18T20:34:23.142Z,15.65
2019-05-18T20:36:58.971Z,15.65
2019-05-18T20:39:34.143Z,15.68
2019-05-18T20:42:06.581Z,15.65
2019-05-18T20:44:38.073Z,15.61
2019-05-18T20:47:11.900Z,15.49
2019-05-18T20:49:46.388Z,15.45
2019-05-18T20:52:21.321Z,15.41
2019-05-18T20:54:52.645Z,15.41
2019-05-18T20:57:26.578Z,15.30
2019-05-18T20:59:58.157Z,15.21
2019-05-18T21:02:31.643Z,15.14
2019-05-18T21:05:03.920Z,15.05
2019-05-18T21:07:36.922Z,15.01
2019-05-18T21:10:09.380Z,14.93
2019-05-18T21:12:42.630Z,14.88
2019-05-18T21:15:17.585Z,14.88
2019-05-18T21:17:49.807Z,14.84
2019-05-18T21:20:21.828Z,14.77
2019-05-18T21:22:53.843Z,14.72
2019-05-18T21:25:25.759Z,14.66
2019-05-18T21:27:57.817Z,14.61
2019-05-18T21:30:29.762Z,14.52
2019-05-18T21:33:02.009Z,14.49
2019-05-18T21:35:34.549Z,14.42
2019-05-18T21:38:05.848Z,14.37
2019-05-18T21:40:38.145Z,14.22
2019-05-18T21:43:10.365Z,14.16
2019-05-18T21:45:45.376Z,14.11
2019-05-18T21:48:17.283Z,14.01
2019-05-18T21:50:49.168Z,13.90
2019-05-18T21:53:21.098Z,13.82
2019-05-18T21:55:52.952Z,13.75
2019-05-18T21:58:24.124Z,13.76
2019-05-18T22:00:55.913Z,13.75
2019-05-18T22:03:27.184Z,13.75
2019-05-18T22:05:59.042Z,13.74
2019-05-18T22:08:30.464Z,13.67
2019-05-18T22:11:01.642Z,13.64
2019-05-18T22:13:33.534Z,13.66
2019-05-18T22:16:04.733Z,13.68
2019-05-18T22:18:36.566Z,13.60
2019-05-18T22:21:07.803Z,13.54
2019-05-18T22:23:40.555Z,13.54
2019-05-18T22:26:12.415Z,13.64
2019-05-18T22:28:44.214Z,13.66
2019-05-18T22:31:19.472Z,13.58
2019-05-18T22:33:49.547Z,13.54
2019-05-18T22:36:21.415Z,13.49
2019-05-18T22:38:54.424Z,13.62
2019-05-18T22:41:26.251Z,13.55
2019-05-18T22:43:58.083Z,13.45
2019-05-18T22:46:29.959Z,13.31
2019-05-18T22:49:01.827Z,13.16
2019-05-18T22:51:33.619Z,13.04
2019-05-18T22:54:04.865Z,13.03
2019-05-18T22:56:36.603Z,12.95
2019-05-18T22:59:08.382Z,12.89
2019-05-18T23:01:40.248Z,12.81
2019-05-18T23:04:12.135Z,12.74
2019-05-18T23:06:43.972Z,12.75
2019-05-18T23:09:15.766Z,12.77
2019-05-18T23:11:47.639Z,12.78
2019-05-18T23:14:19.784Z,12.85
2019-05-18T23:16:51.583Z,12.81
2019-05-18T23:19:23.479Z,12.85
2019-05-18T23:21:55.288Z,12.88
2019-05-18T23:24:27.098Z,12.82
2019-05-18T23:26:58.886Z,12.84
2019-05-18T23:29:30.732Z,12.83
2019-05-18T23:32:02.550Z,12.78
2019-05-18T23:34:34.453Z,12.72
2019-05-18T23:37:06.257Z,12.67
2019-05-18T23:39:38.055Z,12.64
2019-05-18T23:42:09.892Z,12.64
2019-05-18T23:44:41.725Z,12.58
2019-05-18T23:47:13.645Z,12.61
2019-05-18T23:49:45.525Z,12.64
2019-05-18T23:52:17.341Z,12.62
2019-05-18T23:54:49.171Z,12.54
2019-05-18T23:57:22.111Z,12.46
2019-05-18T23:59:54.004Z,12.38
